Time;durP1;ratioP1;P1;durP2;ratioP2;P2;SDS_P1;SDS_P2;PMS_P1;PMS_P2;Temp;Humidity;BMP_temperature;BMP_pressure;BME280_temperature;BME280_humidity;BME280_pressure;Samples;Min_cycle;Max_cycle;Signal;HPM_P1;HPM_P2
2023/09/06 00:00:43;;;;;;;0.00;0.00;;;;;;;-144.99;100.00;67352.69;5033701;28;20189;-79
2023/09/06 00:03:09;;;;;;;0.00;0.00;;;;;;;-144.99;100.00;67352.69;5015985;28;20561;-78
2023/09/06 00:05:34;;;;;;;0.00;0.00;;;;;;;-144.99;100.00;67352.69;5032689;28;20196;-80
2023/09/06 00:08:04;;;;;;;0.00;0.00;;;;;;;-144.99;100.00;67352.69;5015681;28;20553;-80
2023/09/06 00:10:29;;;;;;;0.00;0.00;;;;;;;-144.99;100.00;67352.69;5015951;28;20191;-80
2023/09/06 00:12:54;;;;;;;0.00;0.00;;;;;;;-144.99;100.00;67352.69;5015648;28;20187;-79
2023/09/06 00:15:20;;;;;;;0.00;0.00;;;;;;;-144.99;100.00;67352.69;5033382;28;20241;-79
2023/09/06 00:17:45;;;;;;;0.00;0.00;;;;;;;-144.99;100.00;67352.69;5014700;28;20216;-80
2023/09/06 00:20:45;;;;;;;0.00;0.00;;;;;;;-144.99;100.00;67352.69;5033141;28;20857;-78
2023/09/06 00:23:08;;;;;;;0.00;0.00;;;;;;;-144.99;100.00;67352.69;5029017;28;20199;-78
2023/09/06 00:25:35;;;;;;;0.00;0.00;;;;;;;-144.99;100.00;67352.69;5015123;28;20206;-78
2023/09/06 00:28:03;;;;;;;0.00;0.00;;;;;;;-144.99;100.00;67352.69;5032390;28;20202;-78
2023/09/06 00:30:29;;;;;;;0.00;0.00;;;;;;;-144.99;100.00;67352.69;5015092;28;20184;-78
2023/09/06 00:32:54;;;;;;;0.00;0.00;;;;;;;-144.99;100.00;67352.69;5032766;28;20241;-79
2023/09/06 00:35:23;;;;;;;0.00;0.00;;;;;;;-144.99;100.00;67352.69;5032853;28;20253;-80
2023/09/06 00:37:49;;;;;;;0.00;0.00;;;;;;;-144.99;100.00;67352.69;5032358;28;20192;-79
2023/09/06 00:40:17;;;;;;;0.00;0.00;;;;;;;-144.99;100.00;67352.69;5033217;28;20246;-79
2023/09/06 00:42:50;;;;;;;0.00;0.00;;;;;;;-144.99;100.00;67352.69;5014983;28;20183;-79
2023/09/06 00:45:17;;;;;;;0.00;0.00;;;;;;;-144.99;100.00;67352.69;5014748;28;20204;-78
2023/09/06 00:47:43;;;;;;;0.00;0.00;;;;;;;-144.99;100.00;67352.69;5014450;28;20188;-80
2023/09/06 00:50:11;;;;;;;0.20;0.20;;;;;;;-144.99;100.00;67352.69;5032190;28;20683;-78
2023/09/06 00:52:37;;;;;;;0.00;0.00;;;;;;;-144.99;100.00;67352.69;5032335;28;20259;-78
2023/09/06 00:55:03;;;;;;;0.00;0.00;;;;;;;-144.99;100.00;67352.69;5032462;28;20203;-78
2023/09/06 00:57:29;;;;;;;0.00;0.00;;;;;;;-144.99;100.00;67352.69;5005184;28;20204;-79
2023/09/06 00:59:58;;;;;;;0.00;0.00;;;;;;;-144.99;100.00;67352.69;5011728;28;20187;-79
2023/09/06 01:02:26;;;;;;;0.00;0.00;;;;;;;-144.99;100.00;67352.69;5025261;28;20176;-79
2023/09/06 01:04:53;;;;;;;0.00;0.00;;;;;;;-144.99;100.00;67352.69;5030381;28;20199;-79
2023/09/06 01:07:23;;;;;;;0.00;0.00;;;;;;;-144.99;100.00;67352.69;5031739;28;20210;-78
2023/09/06 01:09:49;;;;;;;0.00;0.00;;;;;;;-144.99;100.00;67352.69;5011631;28;20184;-78
2023/09/06 01:12:15;;;;;;;0.00;0.00;;;;;;;-144.99;100.00;67352.69;5016250;28;20649;-78
2023/09/06 01:14:41;;;;;;;0.00;0.00;;;;;;;-144.99;100.00;67352.69;5012283;28;20180;-79
2023/09/06 01:17:08;;;;;;;0.10;0.10;;;;;;;-144.99;100.00;67352.69;5003474;28;20208;-80
2023/09/06 01:19:36;;;;;;;0.00;0.00;;;;;;;-144.99;100.00;67352.69;5012422;28;20602;-78
2023/09/06 01:22:04;;;;;;;0.00;0.00;;;;;;;-144.99;100.00;67352.69;5012115;28;20192;-81
2023/09/06 01:24:30;;;;;;;0.00;0.00;;;;;;;-144.99;100.00;67352.69;5011650;28;20185;-80
2023/09/06 01:26:57;;;;;;;0.00;0.00;;;;;;;-144.99;100.00;67352.69;5012036;28;20544;-78
2023/09/06 01:29:22;;;;;;;0.10;0.10;;;;;;;-144.99;100.00;67352.69;5019162;28;20184;-78
2023/09/06 01:31:47;;;;;;;0.00;0.00;;;;;;;-144.99;100.00;67352.69;5012139;28;20188;-78
2023/09/06 01:34:13;;;;;;;0.00;0.00;;;;;;;-144.99;100.00;67352.69;5011464;28;20199;-78
2023/09/06 01:36:39;;;;;;;0.00;0.00;;;;;;;-144.99;100.00;67352.69;5011690;28;20232;-81
2023/09/06 01:39:06;;;;;;;0.03;0.03;;;;;;;-144.99;100.00;67352.69;5012341;28;20615;-78
2023/09/06 01:41:31;;;;;;;0.20;0.20;;;;;;;-144.99;100.00;67352.69;5010501;28;20577;-78
2023/09/06 01:43:57;;;;;;;0.00;0.00;;;;;;;-144.99;100.00;67352.69;5012360;28;20188;-80
2023/09/06 01:46:25;;;;;;;0.00;0.00;;;;;;;-144.99;100.00;67352.69;5012364;28;20290;-80
2023/09/06 01:48:50;;;;;;;0.00;0.00;;;;;;;-144.99;100.00;67352.69;5010777;28;20195;-79
2023/09/06 01:51:16;;;;;;;0.10;0.07;;;;;;;-144.99;100.00;67352.69;5027834;28;20569;-79
2023/09/06 01:53:42;;;;;;;0.00;0.00;;;;;;;-144.99;100.00;67352.69;5012811;28;20192;-80
2023/09/06 01:56:07;;;;;;;0.00;0.00;;;;;;;-144.99;100.00;67352.69;5011098;28;20651;-80
2023/09/06 01:58:34;;;;;;;0.50;0.50;;;;;;;-144.99;100.00;67352.69;5012491;28;20200;-80
2023/09/06 02:01:00;;;;;;;0.00;0.00;;;;;;;-144.99;100.00;67352.69;5012876;28;20232;-80
2023/09/06 02:03:29;;;;;;;0.00;0.00;;;;;;;-144.99;100.00;67352.69;5014668;28;20592;-80
2023/09/06 02:05:54;;;;;;;0.10;0.10;;;;;;;-144.99;100.00;67352.69;5031977;28;20215;-79
2023/09/06 02:08:21;;;;;;;0.00;0.00;;;;;;;-144.99;100.00;67352.69;5030713;28;20189;-80
2023/09/06 02:10:46;;;;;;;0.00;0.00;;;;;;;-144.99;100.00;67352.69;5014499;28;20196;-80
2023/09/06 02:13:12;;;;;;;0.00;0.00;;;;;;;-144.99;100.00;67352.69;5032490;28;20271;-80
2023/09/06 02:15:38;;;;;;;0.40;0.40;;;;;;;-144.99;100.00;67352.69;5032143;28;20637;-79
2023/09/06 02:18:04;;;;;;;0.00;0.00;;;;;;;-144.99;100.00;67352.69;5032078;28;20199;-80
2023/09/06 02:20:30;;;;;;;0.40;0.40;;;;;;;-144.99;100.00;67352.69;5009446;28;20338;-79
2023/09/06 02:22:56;;;;;;;0.00;0.00;;;;;;;-144.99;100.00;67352.69;5011634;28;20235;-78
2023/09/06 02:25:23;;;;;;;0.00;0.00;;;;;;;-144.99;100.00;67352.69;5011419;28;20208;-78
2023/09/06 02:27:49;;;;;;;0.00;0.00;;;;;;;-144.99;100.00;67352.69;4994460;28;20656;-78
2023/09/06 02:30:14;;;;;;;0.00;0.00;;;;;;;-144.99;100.00;67352.69;5033806;28;20179;-80
2023/09/06 02:32:42;;;;;;;0.00;0.00;;;;;;;-144.99;100.00;67352.69;5034902;28;20184;-78
2023/09/06 02:35:08;;;;;;;0.00;0.00;;;;;;;-144.99;100.00;67352.69;5016785;28;20683;-78
2023/09/06 02:37:34;;;;;;;0.00;0.00;;;;;;;-144.99;100.00;67352.69;5034070;28;20199;-78
2023/09/06 02:40:00;;;;;;;0.00;0.00;;;;;;;-144.99;100.00;67352.69;5034525;28;20184;-79
2023/09/06 02:42:26;;;;;;;0.00;0.00;;;;;;;-144.99;100.00;67352.69;5034649;28;20189;-78
2023/09/06 02:44:51;;;;;;;0.00;0.00;;;;;;;-144.99;100.00;67352.69;5016689;28;20208;-78
2023/09/06 02:47:17;;;;;;;0.00;0.00;;;;;;;-144.99;100.00;67352.69;5033863;28;20250;-80
2023/09/06 02:49:45;;;;;;;0.00;0.00;;;;;;;-144.99;100.00;67352.69;5034578;28;20262;-78
2023/09/06 02:52:28;;;;;;;0.00;0.00;;;;;;;-144.99;100.00;67352.69;5016537;28;20192;-78
2023/09/06 02:55:03;;;;;;;0.33;0.17;;;;;;;-144.99;100.00;67352.69;5034230;28;20203;-79
2023/09/06 02:57:30;;;;;;;0.00;0.00;;;;;;;-144.99;100.00;67352.69;5033673;28;20222;-78
2023/09/06 02:59:55;;;;;;;0.73;0.53;;;;;;;-144.99;100.00;67352.69;5034331;28;20809;-78
2023/09/06 03:02:21;;;;;;;0.30;0.30;;;;;;;-144.99;100.00;67352.69;5034436;28;20183;-78
2023/09/06 03:04:48;;;;;;;0.10;0.10;;;;;;;-144.99;100.00;67352.69;5016351;28;20585;-78
2023/09/06 03:07:15;;;;;;;0.50;0.50;;;;;;;-144.99;100.00;67352.69;5033600;28;20180;-78
2023/09/06 03:09:40;;;;;;;1.60;1.07;;;;;;;-144.99;100.00;67352.69;5033933;28;20175;-78
2023/09/06 03:12:16;;;;;;;0.00;0.00;;;;;;;-144.99;100.00;67352.69;5033956;28;20186;-79
2023/09/06 03:14:44;;;;;;;0.20;0.20;;;;;;;-144.99;100.00;67352.69;5033999;28;20666;-78
2023/09/06 03:17:10;;;;;;;0.00;0.00;;;;;;;-144.99;100.00;67352.69;5033454;28;20318;-78
2023/09/06 03:19:40;;;;;;;0.00;0.00;;;;;;;-144.99;100.00;67352.69;5034231;28;20219;-78
2023/09/06 03:22:12;;;;;;;0.90;0.70;;;;;;;-144.99;100.00;67352.69;5033978;28;20191;-78
2023/09/06 03:24:42;;;;;;;0.10;0.10;;;;;;;-144.99;100.00;67352.69;5033663;28;20176;-78
2023/09/06 03:27:08;;;;;;;0.00;0.00;;;;;;;-144.99;100.00;67352.69;5012593;28;20243;-78
2023/09/06 03:29:36;;;;;;;0.03;0.03;;;;;;;-144.99;100.00;67352.69;5013881;28;20662;-78
2023/09/06 03:32:08;;;;;;;0.93;0.87;;;;;;;-144.99;100.00;67352.69;5013992;28;20270;-78
2023/09/06 03:34:34;;;;;;;0.20;0.20;;;;;;;-144.99;100.00;67352.69;5014032;28;20195;-78
2023/09/06 03:37:04;;;;;;;0.00;0.00;;;;;;;-144.99;100.00;67352.69;5013460;28;20184;-78
2023/09/06 03:39:30;;;;;;;0.00;0.00;;;;;;;-144.99;100.00;67352.69;5012894;28;20649;-78
2023/09/06 03:42:00;;;;;;;0.00;0.00;;;;;;;-144.99;100.00;67352.69;5013461;28;20191;-79
2023/09/06 03:44:27;;;;;;;0.00;0.00;;;;;;;-144.99;100.00;67352.69;5028950;28;20192;-79
2023/09/06 03:46:55;;;;;;;0.00;0.00;;;;;;;-144.99;100.00;67352.69;5012953;28;20220;-78
2023/09/06 03:49:21;;;;;;;0.10;0.10;;;;;;;-144.99;100.00;67352.69;5014152;28;20200;-80
2023/09/06 03:51:48;;;;;;;0.10;0.10;;;;;;;-144.99;100.00;67352.69;5013839;28;20169;-78
2023/09/06 03:54:14;;;;;;;0.00;0.00;;;;;;;-144.99;100.00;67352.69;5015231;28;20249;-79
2023/09/06 03:56:39;;;;;;;0.00;0.00;;;;;;;-144.99;100.00;67352.69;5028389;28;20699;-80
2023/09/06 03:59:08;;;;;;;0.00;0.00;;;;;;;-144.99;100.00;67352.69;5013480;28;20200;-78
2023/09/06 04:01:33;;;;;;;0.00;0.00;;;;;;;-144.99;100.00;67352.69;5013577;28;20263;-78
2023/09/06 04:04:00;;;;;;;0.00;0.00;;;;;;;-144.99;100.00;67352.69;5013309;28;20663;-79
2023/09/06 04:06:29;;;;;;;0.00;0.00;;;;;;;-144.99;100.00;67352.69;5013258;28;20199;-81
2023/09/06 04:08:55;;;;;;;0.00;0.00;;;;;;;-144.99;100.00;67352.69;5011848;28;20223;-80
2023/09/06 04:11:20;;;;;;;0.00;0.00;;;;;;;-144.99;100.00;67352.69;5013406;28;20188;-78
2023/09/06 04:13:45;;;;;;;0.00;0.00;;;;;;;-144.99;100.00;67352.69;5028602;28;20195;-78
2023/09/06 04:16:11;;;;;;;0.53;0.53;;;;;;;-144.99;100.00;67352.69;5028170;28;20223;-78
2023/09/06 04:18:36;;;;;;;0.00;0.00;;;;;;;-144.99;100.00;67352.69;5013006;28;20715;-79
2023/09/06 04:21:07;;;;;;;0.00;0.00;;;;;;;-144.99;100.00;67352.69;5012945;28;20270;-78
2023/09/06 04:23:33;;;;;;;0.00;0.00;;;;;;;-144.99;100.00;67352.69;5014555;28;20656;-80
2023/09/06 04:26:00;;;;;;;0.00;0.00;;;;;;;-144.99;100.00;67352.69;5012780;28;20207;-81
2023/09/06 04:28:25;;;;;;;0.00;0.00;;;;;;;-144.99;100.00;67352.69;5013530;28;20247;-79
2023/09/06 04:30:51;;;;;;;0.00;0.00;;;;;;;-144.99;100.00;67352.69;5013965;28;20785;-80
2023/09/06 04:33:16;;;;;;;0.00;0.00;;;;;;;-144.99;100.00;67352.69;5014261;28;20255;-80
2023/09/06 04:35:44;;;;;;;0.00;0.00;;;;;;;-144.99;100.00;67352.69;5014407;28;20208;-81
2023/09/06 04:38:15;;;;;;;0.00;0.00;;;;;;;-144.99;100.00;67352.69;5013434;28;20712;-81
2023/09/06 04:40:43;;;;;;;0.00;0.00;;;;;;;-144.99;100.00;67352.69;5014533;28;20271;-80
2023/09/06 04:43:08;;;;;;;0.00;0.00;;;;;;;-144.99;100.00;67352.69;5012630;28;20653;-81
2023/09/06 04:45:37;;;;;;;0.00;0.00;;;;;;;-144.99;100.00;67352.69;5013532;28;20204;-80
2023/09/06 04:48:03;;;;;;;0.00;0.00;;;;;;;-144.99;100.00;67352.69;5013177;28;20266;-80
2023/09/06 04:50:29;;;;;;;0.00;0.00;;;;;;;-144.99;100.00;67352.69;5014014;28;20177;-80
2023/09/06 04:52:56;;;;;;;0.00;0.00;;;;;;;-144.99;100.00;67352.69;5028842;28;20180;-81
2023/09/06 04:55:22;;;;;;;0.00;0.00;;;;;;;-144.99;100.00;67352.69;5014279;28;20208;-80
2023/09/06 04:57:49;;;;;;;0.00;0.00;;;;;;;-144.99;100.00;67352.69;5013609;28;20197;-80
2023/09/06 05:00:19;;;;;;;0.00;0.00;;;;;;;-144.99;100.00;67352.69;5013607;28;20244;-80
2023/09/06 05:02:46;;;;;;;0.00;0.00;;;;;;;-144.99;100.00;67352.69;5013640;28;20565;-79
2023/09/06 05:05:13;;;;;;;0.00;0.00;;;;;;;-144.99;100.00;67352.69;5012177;28;20286;-80
2023/09/06 05:07:39;;;;;;;0.00;0.00;;;;;;;-144.99;100.00;67352.69;5012923;28;20168;-80
2023/09/06 05:10:05;;;;;;;0.00;0.00;;;;;;;-144.99;100.00;67352.69;5013803;28;20231;-81
2023/09/06 05:12:31;;;;;;;0.00;0.00;;;;;;;-144.99;100.00;67352.69;5013407;28;20172;-80
2023/09/06 05:14:56;;;;;;;0.00;0.00;;;;;;;-144.99;100.00;67352.69;5013045;28;20207;-79
2023/09/06 05:17:21;;;;;;;0.20;0.20;;;;;;;-144.99;100.00;67352.69;5012887;28;20648;-80
2023/09/06 05:19:54;;;;;;;0.00;0.00;;;;;;;-144.99;100.00;67352.69;5012033;28;20188;-80
2023/09/06 05:22:23;;;;;;;0.00;0.00;;;;;;;-144.99;100.00;67352.69;5013729;28;20185;-80
2023/09/06 05:24:50;;;;;;;0.00;0.00;;;;;;;-144.99;100.00;67352.69;5013119;28;20208;-79
2023/09/06 05:27:17;;;;;;;0.00;0.00;;;;;;;-144.99;100.00;67352.69;5011561;28;20191;-80
2023/09/06 05:29:42;;;;;;;0.00;0.00;;;;;;;-144.99;100.00;67352.69;5013407;28;20180;-80
2023/09/06 05:32:08;;;;;;;0.63;0.63;;;;;;;-144.99;100.00;67352.69;5013343;28;20184;-80
2023/09/06 05:34:33;;;;;;;0.00;0.00;;;;;;;-144.99;100.00;67352.69;5011614;28;20184;-80
2023/09/06 05:36:59;;;;;;;0.00;0.00;;;;;;;-144.99;100.00;67352.69;5012609;28;20204;-80
2023/09/06 05:39:24;;;;;;;0.00;0.00;;;;;;;-144.99;100.00;67352.69;5013246;28;20218;-79
2023/09/06 05:41:50;;;;;;;0.00;0.00;;;;;;;-144.99;100.00;67352.69;5012155;28;20211;-81
2023/09/06 05:44:15;;;;;;;0.00;0.00;;;;;;;-144.99;100.00;67352.69;5010214;28;20243;-79
2023/09/06 05:46:41;;;;;;;0.00;0.00;;;;;;;-144.99;100.00;67352.69;5010998;28;20219;-79
2023/09/06 05:49:08;;;;;;;0.00;0.00;;;;;;;-144.99;100.00;67352.69;5010128;28;20179;-80
2023/09/06 05:51:33;;;;;;;0.00;0.00;;;;;;;-144.99;100.00;67352.69;5027102;28;20184;-78
2023/09/06 05:54:00;;;;;;;0.00;0.00;;;;;;;-144.99;100.00;67352.69;5010229;28;20264;-78
2023/09/06 05:56:25;;;;;;;0.00;0.00;;;;;;;-144.99;100.00;67352.69;5011671;28;20310;-79
2023/09/06 05:58:50;;;;;;;0.00;0.00;;;;;;;-144.99;100.00;67352.69;5010810;28;20766;-79
2023/09/06 06:01:17;;;;;;;0.00;0.00;;;;;;;-144.99;100.00;67352.69;5011244;28;20180;-78
2023/09/06 06:03:43;;;;;;;0.00;0.00;;;;;;;-144.99;100.00;67352.69;5013913;28;20660;-79
2023/09/06 06:06:10;;;;;;;0.00;0.00;;;;;;;-144.99;100.00;67352.69;5014768;28;20223;-80
2023/09/06 06:08:37;;;;;;;0.00;0.00;;;;;;;-144.99;100.00;67352.69;5014862;28;20175;-78
2023/09/06 06:11:03;;;;;;;0.00;0.00;;;;;;;-144.99;100.00;67352.69;5030467;28;20616;-78
2023/09/06 06:13:29;;;;;;;0.00;0.00;;;;;;;-144.99;100.00;67352.69;5014894;28;20176;-78
2023/09/06 06:15:54;;;;;;;0.00;0.00;;;;;;;-144.99;100.00;67352.69;5013944;28;20200;-78
2023/09/06 06:18:20;;;;;;;0.00;0.00;;;;;;;-144.99;100.00;67352.69;5014519;28;20267;-78
2023/09/06 06:20:46;;;;;;;0.30;0.30;;;;;;;-144.99;100.00;67352.69;5030206;28;20186;-79
2023/09/06 06:23:11;;;;;;;0.00;0.00;;;;;;;-144.99;100.00;67352.69;5014922;28;20263;-79
2023/09/06 06:25:38;;;;;;;0.00;0.00;;;;;;;-144.99;100.00;67352.69;5014887;28;20224;-79
2023/09/06 06:28:04;;;;;;;0.20;0.20;;;;;;;-144.99;100.00;67352.69;5029304;28;20204;-83
2023/09/06 06:30:29;;;;;;;0.00;0.00;;;;;;;-144.99;100.00;67352.69;5023402;28;20570;-79
2023/09/06 06:32:55;;;;;;;0.10;0.10;;;;;;;-144.99;100.00;67352.69;5013300;28;20226;-80
2023/09/06 06:35:20;;;;;;;0.00;0.00;;;;;;;-144.99;100.00;67352.69;5014243;28;20208;-79
2023/09/06 06:37:49;;;;;;;0.00;0.00;;;;;;;-144.99;100.00;67352.69;5012853;28;20284;-81
2023/09/06 06:40:16;;;;;;;0.00;0.00;;;;;;;-144.99;100.00;67352.69;5014029;28;20214;-80
2023/09/06 06:42:42;;;;;;;0.00;0.00;;;;;;;-144.99;100.00;67352.69;5014060;28;20184;-79
2023/09/06 06:45:09;;;;;;;0.00;0.00;;;;;;;-144.99;100.00;67352.69;5013444;28;20196;-80
2023/09/06 06:47:34;;;;;;;0.00;0.00;;;;;;;-144.99;100.00;67352.69;5011980;28;20196;-80
2023/09/06 06:50:03;;;;;;;0.00;0.00;;;;;;;-144.99;100.00;67352.69;5014478;28;20180;-79
2023/09/06 06:52:30;;;;;;;0.00;0.00;;;;;;;-144.99;100.00;67352.69;5011783;28;20173;-80
2023/09/06 06:54:56;;;;;;;0.00;0.00;;;;;;;-144.99;100.00;67352.69;5013827;28;20188;-80
2023/09/06 06:57:21;;;;;;;0.00;0.00;;;;;;;-144.99;100.00;67352.69;5012910;28;20679;-81
2023/09/06 06:59:47;;;;;;;0.30;0.30;;;;;;;-144.99;100.00;67352.69;5015094;28;20176;-81
2023/09/06 07:02:13;;;;;;;0.00;0.00;;;;;;;-144.99;100.00;67352.69;5013157;28;20205;-81
2023/09/06 07:04:39;;;;;;;0.37;0.37;;;;;;;-144.99;100.00;67352.69;5015063;28;20231;-81
2023/09/06 07:07:05;;;;;;;0.00;0.00;;;;;;;-144.99;100.00;67352.69;5007167;28;20190;-81
2023/09/06 07:09:31;;;;;;;0.00;0.00;;;;;;;-144.99;100.00;67352.69;5015308;28;20172;-80
2023/09/06 07:11:56;;;;;;;0.00;0.00;;;;;;;-144.99;100.00;67352.69;5015372;28;20238;-81
2023/09/06 07:14:22;;;;;;;0.00;0.00;;;;;;;-144.99;100.00;67352.69;5015122;28;20267;-81
2023/09/06 07:16:47;;;;;;;0.00;0.00;;;;;;;-144.99;100.00;67352.69;5013042;28;20565;-80
2023/09/06 07:19:12;;;;;;;0.00;0.00;;;;;;;-144.99;100.00;67352.69;5014818;28;20208;-81
2023/09/06 07:21:38;;;;;;;0.00;0.00;;;;;;;-144.99;100.00;67352.69;5014661;28;20181;-81
2023/09/06 07:24:03;;;;;;;0.00;0.00;;;;;;;-144.99;100.00;67352.69;5014445;28;20287;-80
2023/09/06 07:26:29;;;;;;;0.00;0.00;;;;;;;-144.99;100.00;67352.69;5015008;28;20204;-81
2023/09/06 07:28:54;;;;;;;0.00;0.00;;;;;;;-144.99;100.00;67352.69;5013212;28;20208;-81
2023/09/06 07:31:20;;;;;;;0.00;0.00;;;;;;;-144.99;100.00;67352.69;5014752;28;20189;-81
2023/09/06 07:33:46;;;;;;;0.00;0.00;;;;;;;-144.99;100.00;67352.69;5029600;28;20573;-81
2023/09/06 07:36:13;;;;;;;0.10;0.10;;;;;;;-144.99;100.00;67352.69;5014385;28;20215;-81
2023/09/06 07:38:38;;;;;;;0.00;0.00;;;;;;;-144.99;100.00;67352.69;5013136;28;20228;-81
2023/09/06 07:41:06;;;;;;;0.00;0.00;;;;;;;-144.99;100.00;67352.69;5014713;28;20187;-80
2023/09/06 07:43:33;;;;;;;0.00;0.00;;;;;;;-144.99;100.00;67352.69;5014702;28;20234;-81
2023/09/06 07:45:59;;;;;;;0.00;0.00;;;;;;;-144.99;100.00;67352.69;5014644;28;21390;-81
2023/09/06 07:48:29;;;;;;;0.00;0.00;;;;;;;-144.99;100.00;67352.69;5014091;28;20182;-81
2023/09/06 07:50:56;;;;;;;0.00;0.00;;;;;;;-144.99;100.00;67352.69;5014302;28;20185;-80
2023/09/06 07:53:23;;;;;;;0.00;0.00;;;;;;;-144.99;100.00;67352.69;5029191;28;20670;-80
2023/09/06 07:55:49;;;;;;;0.00;0.00;;;;;;;-144.99;100.00;67352.69;5014336;28;20565;-81
2023/09/06 07:58:15;;;;;;;0.00;0.00;;;;;;;-144.99;100.00;67352.69;5014013;28;20208;-81
2023/09/06 08:00:41;;;;;;;0.00;0.00;;;;;;;-144.99;100.00;67352.69;5014009;28;20178;-81
2023/09/06 08:03:07;;;;;;;0.00;0.00;;;;;;;-144.99;100.00;67352.69;5013944;28;20181;-81
2023/09/06 08:05:32;;;;;;;0.00;0.00;;;;;;;-144.99;100.00;67352.69;5012296;28;20205;-81
2023/09/06 08:07:58;;;;;;;0.00;0.00;;;;;;;-144.99;100.00;67352.69;5013268;28;20607;-83
2023/09/06 08:10:24;;;;;;;0.00;0.00;;;;;;;-144.99;100.00;67352.69;5017276;28;20184;-83
2023/09/06 08:12:51;;;;;;;0.00;0.00;;;;;;;-144.99;100.00;67352.69;5016750;28;20668;-84
2023/09/06 08:15:17;;;;;;;0.00;0.00;;;;;;;-144.99;100.00;67352.69;5017087;28;20206;-80
2023/09/06 08:17:42;;;;;;;0.00;0.00;;;;;;;-144.99;100.00;67352.69;5000876;28;20200;-80
2023/09/06 08:20:09;;;;;;;0.00;0.00;;;;;;;-144.99;100.00;67352.69;5013233;28;20174;-81
2023/09/06 08:22:35;;;;;;;0.00;0.00;;;;;;;-144.99;100.00;67352.69;4995303;28;20279;-80
2023/09/06 08:25:02;;;;;;;0.00;0.00;;;;;;;-144.99;100.00;67352.69;5019065;28;20199;-81
2023/09/06 08:27:28;;;;;;;0.10;0.10;;;;;;;-144.99;100.00;67352.69;5006119;28;20651;-82
2023/09/06 08:29:53;;;;;;;0.00;0.00;;;;;;;-144.99;100.00;67352.69;5019007;28;20182;-83
2023/09/06 08:32:18;;;;;;;0.00;0.00;;;;;;;-144.99;100.00;67352.69;5018319;28;20178;-82
2023/09/06 08:34:45;;;;;;;0.00;0.00;;;;;;;-144.99;100.00;67352.69;5029597;28;20532;-81
2023/09/06 08:37:10;;;;;;;0.00;0.00;;;;;;;-144.99;100.00;67352.69;5013101;28;20231;-81
2023/09/06 08:39:35;;;;;;;0.00;0.00;;;;;;;-144.99;100.00;67352.69;5014060;28;20210;-81
2023/09/06 08:42:03;;;;;;;0.40;0.40;;;;;;;-144.99;100.00;67352.69;5005519;28;20181;-78
2023/09/06 08:44:31;;;;;;;0.57;0.57;;;;;;;-144.99;100.00;67352.69;5012420;28;20181;-78
2023/09/06 08:47:03;;;;;;;0.00;0.00;;;;;;;-144.99;100.00;67352.69;4999624;28;20185;-78
2023/09/06 08:49:28;;;;;;;0.00;0.00;;;;;;;-144.99;100.00;67352.69;5011426;28;20183;-79
2023/09/06 08:51:55;;;;;;;0.10;0.10;;;;;;;-144.99;100.00;67352.69;5010786;28;20177;-78
2023/09/06 08:54:23;;;;;;;0.00;0.00;;;;;;;-144.99;100.00;67352.69;5007514;28;20180;-79
2023/09/06 08:56:50;;;;;;;0.10;0.10;;;;;;;-144.99;100.00;67352.69;5008414;28;20211;-79
2023/09/06 08:59:16;;;;;;;1.13;0.50;;;;;;;-144.99;100.00;67352.69;5011340;28;20192;-79
2023/09/06 09:01:41;;;;;;;0.00;0.00;;;;;;;-144.99;100.00;67352.69;5011489;28;20263;-79
2023/09/06 09:04:07;;;;;;;0.00;0.00;;;;;;;-144.99;100.00;67352.69;5011514;28;20203;-79
2023/09/06 09:06:32;;;;;;;0.10;0.10;;;;;;;-144.99;100.00;67352.69;5010138;28;20204;-79
2023/09/06 09:09:13;;;;;;;0.00;0.00;;;;;;;-144.99;100.00;67352.69;5012071;28;20542;-79
2023/09/06 09:11:50;;;;;;;0.00;0.00;;;;;;;-144.99;100.00;67352.69;5010354;28;20215;-79
2023/09/06 09:14:20;;;;;;;0.50;0.50;;;;;;;-144.99;100.00;67352.69;5011400;28;20186;-80
2023/09/06 09:16:55;;;;;;;0.00;0.00;;;;;;;-144.99;100.00;67352.69;5011111;28;20287;-80
2023/09/06 09:19:21;;;;;;;0.00;0.00;;;;;;;-144.99;100.00;67352.69;5011455;28;20199;-79
2023/09/06 09:21:47;;;;;;;0.00;0.00;;;;;;;-144.99;100.00;67352.69;5010193;28;20246;-78
2023/09/06 09:24:12;;;;;;;0.10;0.10;;;;;;;-144.99;100.00;67352.69;5012372;28;20176;-81
2023/09/06 09:26:41;;;;;;;0.17;0.17;;;;;;;-144.99;100.00;67352.69;5013228;28;20204;-81
2023/09/06 09:29:11;;;;;;;0.63;0.33;;;;;;;-144.99;100.00;67352.69;5011857;28;20180;-81
2023/09/06 09:31:37;;;;;;;0.00;0.00;;;;;;;-144.99;100.00;67352.69;5013055;28;20180;-80
2023/09/06 09:34:02;;;;;;;0.40;0.40;;;;;;;-144.99;100.00;67352.69;5012878;28;20535;-81
2023/09/06 09:36:34;;;;;;;0.10;0.10;;;;;;;-144.99;100.00;67352.69;5012149;28;20196;-81
2023/09/06 09:39:05;;;;;;;0.40;0.37;;;;;;;-144.99;100.00;67352.69;5012048;28;20199;-80
2023/09/06 09:41:31;;;;;;;0.00;0.00;;;;;;;-144.99;100.00;67352.69;5013050;28;20192;-80
2023/09/06 09:44:19;;;;;;;0.00;0.00;;;;;;;-144.99;100.00;67352.69;5011357;28;20184;-81
2023/09/06 09:46:45;;;;;;;0.00;0.00;;;;;;;-144.99;100.00;67352.69;5031715;28;20215;-81
2023/09/06 09:49:12;;;;;;;0.00;0.00;;;;;;;-144.99;100.00;67352.69;5032360;28;20184;-80
2023/09/06 09:51:39;;;;;;;0.20;0.20;;;;;;;-144.99;100.00;67352.69;5032890;28;20183;-81
2023/09/06 09:54:06;;;;;;;0.00;0.00;;;;;;;-144.99;100.00;67352.69;5032330;28;20176;-80
2023/09/06 09:56:33;;;;;;;2.13;0.30;;;;;;;-144.99;100.00;67352.69;5030706;28;20210;-81
2023/09/06 09:59:01;;;;;;;0.17;0.17;;;;;;;-144.99;100.00;67352.69;5031776;28;20199;-79
2023/09/06 10:01:31;;;;;;;0.00;0.00;;;;;;;-144.99;100.00;67352.69;5032198;28;20195;-80
2023/09/06 10:03:58;;;;;;;0.00;0.00;;;;;;;-144.99;100.00;67352.69;5032364;28;20180;-80
2023/09/06 10:06:26;;;;;;;0.30;0.30;;;;;;;-144.99;100.00;67352.69;5014581;28;20340;-81
2023/09/06 10:08:55;;;;;;;0.00;0.00;;;;;;;-144.99;100.00;67352.69;5031750;28;20172;-79
2023/09/06 10:11:21;;;;;;;0.00;0.00;;;;;;;-144.99;100.00;67352.69;5032032;28;20171;-79
2023/09/06 10:13:47;;;;;;;0.00;0.00;;;;;;;-144.99;100.00;67352.69;5031693;28;20234;-81
2023/09/06 10:16:13;;;;;;;0.13;0.13;;;;;;;-144.99;100.00;67352.69;5031586;28;20195;-80
2023/09/06 10:18:39;;;;;;;0.00;0.00;;;;;;;-144.99;100.00;67352.69;5026327;28;20203;-80
2023/09/06 10:21:06;;;;;;;0.00;0.00;;;;;;;-144.99;100.00;67352.69;5028525;28;20184;-80
2023/09/06 10:23:34;;;;;;;0.00;0.00;;;;;;;-144.99;100.00;67352.69;5032324;28;20203;-82
2023/09/06 10:26:01;;;;;;;0.00;0.00;;;;;;;-144.99;100.00;67352.69;5032137;28;20585;-81
2023/09/06 10:28:32;;;;;;;0.00;0.00;;;;;;;-144.99;100.00;67352.69;5032177;28;20180;-79
2023/09/06 10:31:07;;;;;;;0.00;0.00;;;;;;;-144.99;100.00;67352.69;5013540;28;20214;-79
2023/09/06 10:33:35;;;;;;;0.00;0.00;;;;;;;-144.99;100.00;67352.69;5013191;28;20194;-79
2023/09/06 10:36:09;;;;;;;0.10;0.10;;;;;;;-144.99;100.00;67352.69;5023161;28;20290;-79
2023/09/06 10:38:55;;;;;;;0.00;0.00;;;;;;;-144.99;100.00;67352.69;5010467;28;20289;-79
2023/09/06 10:41:26;;;;;;;0.00;0.00;;;;;;;-144.99;100.00;67352.69;5000219;28;20218;-79
2023/09/06 10:44:04;;;;;;;0.27;0.27;;;;;;;-144.99;100.00;67352.69;5030293;28;20549;-80
2023/09/06 10:46:34;;;;;;;0.33;0.23;;;;;;;-144.99;100.00;67352.69;5029601;28;20687;-79
2023/09/06 10:49:20;;;;;;;0.83;0.20;;;;;;;-144.99;100.00;67352.69;5030080;28;20251;-79
2023/09/06 10:52:05;;;;;;;0.00;0.00;;;;;;;-144.99;100.00;67352.69;5034002;28;20185;-77
2023/09/06 10:54:42;;;;;;;0.00;0.00;;;;;;;-144.99;100.00;67352.69;5015936;28;20184;-77
2023/09/06 10:57:12;;;;;;;0.20;0.20;;;;;;;-144.99;100.00;67352.69;5015426;28;20568;-79
2023/09/06 10:59:39;;;;;;;0.00;0.00;;;;;;;-144.99;100.00;67352.69;5033887;28;20222;-79
2023/09/06 11:02:27;;;;;;;0.00;0.00;;;;;;;-144.99;100.00;67352.69;5033904;28;20182;-79
2023/09/06 11:05:05;;;;;;;0.20;0.20;;;;;;;-144.99;100.00;67352.69;5025582;28;20216;-79
2023/09/06 11:07:44;;;;;;;0.10;0.10;;;;;;;-144.99;100.00;67352.69;5033485;28;20678;-79
2023/09/06 11:10:11;;;;;;;0.10;0.10;;;;;;;-144.99;100.00;67352.69;5016298;28;20194;-80